createdAt,value
2017-07-30T00:02:06.701Z,56.90
2017-07-30T00:04:34.813Z,56.90
2017-07-30T00:07:03.639Z,57.00
2017-07-30T00:09:31.719Z,57.00
2017-07-30T00:12:00.684Z,57.20
2017-07-30T00:14:28.776Z,57.20
2017-07-30T00:16:56.850Z,57.40
2017-07-30T00:19:24.916Z,57.40
2017-07-30T00:21:52.987Z,57.60
2017-07-30T00:24:21.064Z,57.60
2017-07-30T00:26:49.148Z,57.80
2017-07-30T00:29:17.220Z,57.70
2017-07-30T00:31:45.292Z,57.70
2017-07-30T00:34:13.408Z,57.70
2017-07-30T00:36:41.500Z,57.70
2017-07-30T00:39:10.328Z,58.00
2017-07-30T00:41:38.413Z,57.80
2017-07-30T00:44:06.479Z,58.30
2017-07-30T00:46:34.555Z,58.90
2017-07-30T00:49:02.703Z,58.80
2017-07-30T00:51:30.794Z,58.90
2017-07-30T00:53:58.877Z,58.90
2017-07-30T00:56:26.951Z,58.90
2017-07-30T00:58:55.030Z,58.80
2017-07-30T01:01:23.103Z,58.80
2017-07-30T01:03:51.191Z,58.80
2017-07-30T01:06:19.258Z,59.20
2017-07-30T01:08:47.340Z,58.90
2017-07-30T01:11:16.183Z,59.20
2017-07-30T01:13:44.272Z,59.20
2017-07-30T01:16:12.347Z,59.40
2017-07-30T01:18:40.479Z,59.50
2017-07-30T01:21:08.551Z,59.50
2017-07-30T01:23:36.637Z,59.60
2017-07-30T01:26:04.720Z,59.70
2017-07-30T01:28:32.808Z,59.80
2017-07-30T01:31:00.890Z,59.90
2017-07-30T01:33:29.778Z,60.00
2017-07-30T01:35:57.851Z,59.90
2017-07-30T01:38:25.926Z,60.00
2017-07-30T01:40:54.059Z,60.20
2017-07-30T01:43:22.131Z,60.20
2017-07-30T01:45:50.211Z,60.60
2017-07-30T01:48:18.311Z,60.40
2017-07-30T01:50:46.394Z,60.60
2017-07-30T01:53:14.459Z,60.50
2017-07-30T01:55:42.538Z,60.60
2017-07-30T01:58:10.611Z,60.80
2017-07-30T02:00:38.688Z,60.80
2017-07-30T02:03:06.761Z,60.70
2017-07-30T02:05:34.834Z,60.60
2017-07-30T02:08:02.903Z,60.80
2017-07-30T02:10:31.039Z,60.80
2017-07-30T02:12:59.110Z,60.90
2017-07-30T02:15:27.179Z,61.00
2017-07-30T02:17:55.256Z,61.00
2017-07-30T02:20:23.323Z,61.00
2017-07-30T02:22:51.400Z,61.00
2017-07-30T02:25:19.473Z,60.90
2017-07-30T02:27:47.547Z,61.00
2017-07-30T02:30:15.620Z,61.10
2017-07-30T02:32:43.699Z,61.20
2017-07-30T02:35:11.764Z,61.10
2017-07-30T02:37:39.831Z,61.30
2017-07-30T02:40:07.915Z,61.30
2017-07-30T02:42:35.998Z,61.40
2017-07-30T02:45:04.080Z,61.60
2017-07-30T02:47:32.148Z,61.50
2017-07-30T02:50:00.263Z,61.70
2017-07-30T02:52:29.311Z,61.70
2017-07-30T02:54:57.396Z,62.00
2017-07-30T02:57:25.464Z,62.30
2017-07-30T02:59:53.544Z,62.20
2017-07-30T03:02:21.640Z,62.40
2017-07-30T03:04:50.496Z,63.00
2017-07-30T03:07:18.567Z,62.30
2017-07-30T03:09:46.648Z,62.50
2017-07-30T03:12:14.715Z,62.80
2017-07-30T03:14:42.794Z,62.60
2017-07-30T03:17:10.880Z,62.60
2017-07-30T03:19:38.984Z,62.80
2017-07-30T03:22:07.054Z,62.90
2017-07-30T03:24:35.117Z,62.80
2017-07-30T03:27:03.968Z,62.90
2017-07-30T03:29:32.036Z,62.80
2017-07-30T03:32:00.113Z,62.70
2017-07-30T03:34:28.183Z,62.80
2017-07-30T03:36:56.258Z,62.90
2017-07-30T03:39:24.327Z,62.90
2017-07-30T03:41:52.409Z,63.20
2017-07-30T03:44:20.487Z,63.20
2017-07-30T03:46:48.605Z,63.90
2017-07-30T03:49:16.668Z,63.30
2017-07-30T03:51:44.743Z,63.30
2017-07-30T03:54:12.807Z,63.20
2017-07-30T03:56:40.875Z,63.20
2017-07-30T03:59:09.732Z,63.20
2017-07-30T04:01:37.801Z,63.00
2017-07-30T04:04:05.878Z,63.20
2017-07-30T04:06:33.955Z,62.90
2017-07-30T04:09:02.099Z,63.00
2017-07-30T04:11:30.178Z,63.10
2017-07-30T04:13:58.269Z,62.90
2017-07-30T04:16:26.334Z,63.00
2017-07-30T04:18:54.407Z,62.70
2017-07-30T04:21:22.475Z,62.90
2017-07-30T04:23:50.556Z,62.80
2017-07-30T04:26:18.621Z,63.10
2017-07-30T04:28:46.698Z,63.40
2017-07-30T04:31:14.764Z,63.30
2017-07-30T04:33:42.836Z,63.00
2017-07-30T04:36:10.924Z,63.70
2017-07-30T04:38:38.983Z,63.40
2017-07-30T04:41:07.055Z,63.20
2017-07-30T04:43:35.122Z,63.10
2017-07-30T04:46:03.199Z,63.30
2017-07-30T04:48:31.272Z,62.90
2017-07-30T04:50:59.339Z,62.90
2017-07-30T04:53:27.414Z,63.00
2017-07-30T04:55:55.535Z,62.70
2017-07-30T04:58:24.395Z,63.10
2017-07-30T05:00:52.488Z,63.00
2017-07-30T05:03:21.322Z,63.00
2017-07-30T05:05:49.424Z,62.80
2017-07-30T05:08:17.508Z,63.80
2017-07-30T05:10:45.576Z,62.30
2017-07-30T05:13:13.660Z,63.10
2017-07-30T05:15:41.731Z,62.50
2017-07-30T05:18:09.807Z,62.50
2017-07-30T05:20:38.644Z,61.60
2017-07-30T05:23:06.715Z,61.30
2017-07-30T05:25:34.788Z,61.40
2017-07-30T05:28:02.860Z,61.00
2017-07-30T05:30:30.931Z,60.00
2017-07-30T05:32:59.011Z,60.10
2017-07-30T05:35:27.080Z,60.00
2017-07-30T05:37:55.161Z,60.30
2017-07-30T05:40:23.236Z,58.80
2017-07-30T05:42:51.308Z,59.00
2017-07-30T05:45:19.418Z,58.80
2017-07-30T05:47:47.480Z,58.30
2017-07-30T05:50:15.568Z,57.60
2017-07-30T05:52:44.420Z,55.90
2017-07-30T05:55:12.495Z,55.90
2017-07-30T05:57:40.572Z,55.20
2017-07-30T06:00:08.659Z,55.00
2017-07-30T06:02:36.737Z,54.40
2017-07-30T06:05:04.807Z,53.50
2017-07-30T06:07:32.875Z,52.90
2017-07-30T06:10:00.967Z,52.30
2017-07-30T06:12:29.803Z,52.30
2017-07-30T06:14:57.876Z,52.30
2017-07-30T06:17:25.956Z,52.30
2017-07-30T06:19:54.021Z,52.90
2017-07-30T06:22:22.096Z,53.50
2017-07-30T06:24:50.159Z,53.90
2017-07-30T06:27:18.235Z,54.30
2017-07-30T06:29:46.310Z,54.50
2017-07-30T06:32:14.384Z,54.80
2017-07-30T06:34:42.450Z,55.00
2017-07-30T06:37:10.537Z,55.00
2017-07-30T06:39:39.364Z,54.40
2017-07-30T06:42:07.428Z,54.40
2017-07-30T06:44:35.501Z,53.60
2017-07-30T06:47:04.348Z,52.40
2017-07-30T06:49:32.434Z,52.30
2017-07-30T06:52:00.522Z,51.80
2017-07-30T06:54:28.596Z,51.70
2017-07-30T06:56:56.660Z,51.60
2017-07-30T06:59:24.740Z,51.10
2017-07-30T07:01:52.798Z,51.10
2017-07-30T07:04:20.874Z,51.10
2017-07-30T07:06:48.957Z,50.50
2017-07-30T07:09:17.052Z,50.60
2017-07-30T07:11:45.892Z,50.10
2017-07-30T07:14:13.978Z,50.20
2017-07-30T07:16:42.048Z,50.00
2017-07-30T07:19:10.124Z,50.30
2017-07-30T07:21:38.955Z,50.80
2017-07-30T07:24:07.021Z,50.70
2017-07-30T07:26:35.091Z,50.70
2017-07-30T07:29:03.932Z,50.60
2017-07-30T07:31:32.007Z,50.20
2017-07-30T07:34:00.076Z,50.00
2017-07-30T07:36:28.927Z,49.00
2017-07-30T07:38:56.988Z,49.00
2017-07-30T07:41:25.060Z,49.10
2017-07-30T07:43:53.123Z,48.60
2017-07-30T07:46:21.195Z,48.40
2017-07-30T07:48:49.314Z,48.20
2017-07-30T07:51:17.380Z,48.30
2017-07-30T07:53:45.451Z,48.30
2017-07-30T07:56:13.506Z,48.20
2017-07-30T07:58:42.360Z,48.00
2017-07-30T08:01:10.431Z,47.90
2017-07-30T08:03:38.503Z,48.60
2017-07-30T08:06:06.575Z,47.30
2017-07-30T08:08:34.646Z,47.40
2017-07-30T08:11:02.735Z,47.20
2017-07-30T08:13:30.822Z,46.70
2017-07-30T08:15:58.894Z,46.70
2017-07-30T08:18:26.971Z,46.60
2017-07-30T08:20:55.027Z,46.60
2017-07-30T08:23:23.107Z,46.30
2017-07-30T08:25:51.176Z,45.50
2017-07-30T08:28:19.248Z,45.60
2017-07-30T08:30:47.323Z,45.60
2017-07-30T08:33:15.399Z,45.60
2017-07-30T08:35:44.247Z,45.70
2017-07-30T08:38:12.322Z,45.70
2017-07-30T08:40:40.387Z,45.80
2017-07-30T08:43:08.479Z,45.80
2017-07-30T08:45:36.551Z,45.50
2017-07-30T08:48:04.615Z,45.90
2017-07-30T08:50:32.692Z,45.60
2017-07-30T08:53:00.759Z,44.90
2017-07-30T08:55:28.842Z,45.00
2017-07-30T08:57:56.925Z,44.60
2017-07-30T09:00:25.212Z,43.90
2017-07-30T09:03:02.512Z,43.80
2017-07-30T09:05:31.355Z,43.20
2017-07-30T09:07:59.509Z,43.00
2017-07-30T09:10:27.571Z,43.10
2017-07-30T09:12:55.648Z,42.70
2017-07-30T09:15:23.714Z,43.30
2017-07-30T09:17:51.815Z,42.20
2017-07-30T09:20:19.875Z,41.80
2017-07-30T09:22:47.952Z,42.60
2017-07-30T09:25:16.024Z,42.20
2017-07-30T09:27:44.105Z,42.60
2017-07-30T09:30:12.169Z,42.00
2017-07-30T09:32:40.295Z,42.00
2017-07-30T09:35:08.367Z,41.80
2017-07-30T09:37:36.430Z,41.90
2017-07-30T09:40:04.519Z,42.00
2017-07-30T09:42:32.595Z,40.50
2017-07-30T09:45:00.697Z,40.50
2017-07-30T09:47:28.783Z,40.50
2017-07-30T09:49:56.863Z,40.90
2017-07-30T09:52:24.923Z,40.50
2017-07-30T09:54:55.678Z,39.60
2017-07-30T09:57:23.771Z,40.00
2017-07-30T09:59:51.855Z,39.90
2017-07-30T10:02:19.914Z,37.90
2017-07-30T10:04:47.982Z,38.30
2017-07-30T10:07:16.063Z,36.90
2017-07-30T10:09:44.132Z,37.50
2017-07-30T10:12:12.205Z,37.60
2017-07-30T10:14:40.276Z,37.50
2017-07-30T10:17:08.353Z,36.50
2017-07-30T10:19:36.415Z,37.00
2017-07-30T10:22:04.492Z,36.40
2017-07-30T10:24:32.555Z,36.00
2017-07-30T10:27:00.636Z,34.70
2017-07-30T10:29:28.714Z,34.70
2017-07-30T10:31:56.784Z,34.20
2017-07-30T10:34:24.881Z,34.40
2017-07-30T10:36:52.955Z,34.80
2017-07-30T10:39:21.790Z,33.80
2017-07-30T10:41:49.851Z,33.70
2017-07-30T10:44:17.928Z,33.80
2017-07-30T10:46:46.119Z,33.80
2017-07-30T10:49:14.197Z,33.50
2017-07-30T10:51:42.265Z,32.90
2017-07-30T10:54:10.335Z,32.80
2017-07-30T10:56:38.422Z,31.60
2017-07-30T10:59:06.496Z,30.90
2017-07-30T11:01:34.980Z,30.80
2017-07-30T11:04:03.069Z,29.30
2017-07-30T11:06:31.128Z,28.80
2017-07-30T11:08:59.207Z,27.10
2017-07-30T11:11:27.279Z,27.00
2017-07-30T11:13:56.145Z,27.10
2017-07-30T11:16:24.247Z,27.60
2017-07-30T11:18:52.304Z,26.80
2017-07-30T11:21:20.443Z,26.60
2017-07-30T11:23:49.383Z,26.70
2017-07-30T11:26:17.797Z,26.30
2017-07-30T11:28:45.859Z,26.20
2017-07-30T11:31:13.931Z,26.70
2017-07-30T11:33:41.998Z,26.80
2017-07-30T11:36:10.072Z,27.50
2017-07-30T11:38:38.139Z,26.30
2017-07-30T11:41:06.988Z,27.40
2017-07-30T11:43:35.067Z,27.40
2017-07-30T11:46:03.144Z,28.10
2017-07-30T11:48:31.232Z,28.50
2017-07-30T11:51:00.037Z,28.90
2017-07-30T11:53:28.866Z,28.70
2017-07-30T11:55:56.941Z,28.70
2017-07-30T11:58:25.023Z,28.50
2017-07-30T12:00:53.085Z,28.50
2017-07-30T12:03:21.157Z,27.20
2017-07-30T12:05:49.225Z,27.00
2017-07-30T12:08:17.299Z,27.10
2017-07-30T12:10:45.367Z,27.20
2017-07-30T12:13:13.446Z,25.70
2017-07-30T12:15:41.524Z,25.70
2017-07-30T12:18:09.635Z,26.00
2017-07-30T12:20:37.697Z,25.80
2017-07-30T12:23:05.779Z,25.80
2017-07-30T12:25:33.865Z,26.40
2017-07-30T12:28:02.903Z,25.10
2017-07-30T12:30:30.972Z,25.10
2017-07-30T12:32:59.047Z,25.30
2017-07-30T12:35:27.134Z,25.80
2017-07-30T12:37:55.202Z,25.30
2017-07-30T12:40:23.430Z,25.10
2017-07-30T12:42:52.263Z,25.20
2017-07-30T12:45:20.348Z,25.30
2017-07-30T12:47:48.606Z,25.70
2017-07-30T12:50:16.677Z,25.70
2017-07-30T12:52:44.747Z,25.70
2017-07-30T12:55:12.818Z,24.90
2017-07-30T12:57:40.889Z,24.70
2017-07-30T13:00:08.968Z,25.20
2017-07-30T13:02:37.018Z,23.90
2017-07-30T13:05:05.109Z,24.90
2017-07-30T13:07:33.182Z,24.80
2017-07-30T13:10:01.236Z,25.80
2017-07-30T13:12:29.317Z,24.70
2017-07-30T13:14:57.379Z,25.30
2017-07-30T13:17:25.468Z,25.60
2017-07-30T13:19:53.547Z,25.00
2017-07-30T13:22:21.614Z,25.30
2017-07-30T13:24:49.699Z,26.40
2017-07-30T13:27:17.782Z,25.90
2017-07-30T13:29:45.854Z,25.90
2017-07-30T13:32:13.928Z,25.90
2017-07-30T13:34:42.020Z,25.90
2017-07-30T13:37:10.091Z,25.90
2017-07-30T13:39:38.222Z,25.90
2017-07-30T13:42:07.280Z,25.90
2017-07-30T13:44:35.356Z,25.90
2017-07-30T13:47:04.182Z,25.80
2017-07-30T13:49:32.262Z,25.50
2017-07-30T13:52:00.323Z,25.90
2017-07-30T13:54:28.394Z,25.80
2017-07-30T13:56:56.469Z,25.80
2017-07-30T13:59:24.558Z,25.70
2017-07-30T14:01:52.617Z,25.80
2017-07-30T14:04:20.789Z,25.70
2017-07-30T14:06:48.848Z,26.20
2017-07-30T14:09:16.931Z,26.60
2017-07-30T14:11:45.027Z,26.70
2017-07-30T14:14:13.115Z,26.60
2017-07-30T14:16:41.188Z,26.70
2017-07-30T14:19:09.264Z,26.80
2017-07-30T14:21:37.332Z,27.10
2017-07-30T14:24:05.427Z,27.40
2017-07-30T14:26:34.279Z,27.40
2017-07-30T14:29:02.346Z,27.40
2017-07-30T14:31:30.422Z,27.90
2017-07-30T14:33:58.489Z,27.70
2017-07-30T14:36:26.558Z,27.80
2017-07-30T14:38:54.628Z,28.30
2017-07-30T14:41:22.710Z,28.70
2017-07-30T14:43:50.770Z,28.60
2017-07-30T14:46:18.861Z,29.30
2017-07-30T14:48:46.934Z,29.00
2017-07-30T14:51:15.027Z,29.30
2017-07-30T14:53:43.162Z,28.80
2017-07-30T14:56:11.227Z,29.30
2017-07-30T14:58:39.307Z,29.30
2017-07-30T15:01:07.377Z,29.00
2017-07-30T15:03:35.448Z,29.20
2017-07-30T15:06:03.516Z,29.20
2017-07-30T15:08:31.591Z,29.60
2017-07-30T15:10:59.659Z,29.10
2017-07-30T15:13:27.743Z,29.70
2017-07-30T15:15:55.802Z,29.10
2017-07-30T15:18:23.896Z,29.10
2017-07-30T15:20:51.962Z,29.00
2017-07-30T15:23:20.032Z,29.00
2017-07-30T15:25:48.119Z,29.00
2017-07-30T15:28:16.207Z,28.80
2017-07-30T15:30:44.279Z,28.90
2017-07-30T15:33:12.347Z,28.90
2017-07-30T15:35:40.431Z,28.90
2017-07-30T15:38:08.496Z,28.90
2017-07-30T15:40:36.567Z,29.70
2017-07-30T15:43:04.706Z,28.80
2017-07-30T15:45:32.795Z,29.10
2017-07-30T15:48:00.871Z,29.20
2017-07-30T15:50:28.955Z,29.80
2017-07-30T15:52:57.028Z,29.70
2017-07-30T15:55:25.131Z,29.40
2017-07-30T15:57:53.238Z,29.70
2017-07-30T16:00:21.315Z,29.70
2017-07-30T16:02:49.404Z,29.90
2017-07-30T16:05:17.476Z,29.50
2017-07-30T16:07:45.552Z,30.00
2017-07-30T16:10:13.626Z,30.00
2017-07-30T16:12:41.700Z,29.80
2017-07-30T16:15:09.771Z,29.10
2017-07-30T16:17:37.855Z,28.80
2017-07-30T16:20:05.928Z,28.90
2017-07-30T16:22:34.011Z,28.80
2017-07-30T16:25:02.079Z,28.90
2017-07-30T16:27:30.146Z,29.80
2017-07-30T16:29:58.211Z,30.20
2017-07-30T16:32:26.300Z,31.60
2017-07-30T16:34:54.370Z,32.50
2017-07-30T16:37:23.215Z,33.80
2017-07-30T16:39:51.390Z,33.30
2017-07-30T16:42:19.462Z,32.80
2017-07-30T16:44:47.531Z,33.30
2017-07-30T16:47:15.607Z,33.70
2017-07-30T16:49:43.687Z,34.00
2017-07-30T16:52:11.746Z,33.20
2017-07-30T16:54:39.835Z,34.20
2017-07-30T16:57:07.903Z,34.60
2017-07-30T16:59:35.975Z,34.60
2017-07-30T17:02:04.060Z,35.10
2017-07-30T17:04:32.144Z,35.60
2017-07-30T17:07:00.222Z,36.30
2017-07-30T17:09:28.293Z,36.20
2017-07-30T17:11:56.366Z,36.60
2017-07-30T17:14:24.434Z,36.70
2017-07-30T17:16:52.516Z,37.30
2017-07-30T17:19:20.583Z,36.40
2017-07-30T17:21:48.684Z,36.50
2017-07-30T17:24:16.751Z,36.60
2017-07-30T17:26:44.854Z,36.40
2017-07-30T17:29:12.927Z,36.30
2017-07-30T17:31:41.006Z,36.70
2017-07-30T17:34:09.076Z,37.40
2017-07-30T17:36:37.151Z,37.80
2017-07-30T17:39:05.228Z,38.20
2017-07-30T17:41:34.062Z,38.90
2017-07-30T17:44:02.136Z,38.80
2017-07-30T17:46:30.204Z,39.10
2017-07-30T17:48:58.389Z,39.80
2017-07-30T17:51:27.220Z,40.40
2017-07-30T17:53:55.295Z,40.30
2017-07-30T17:56:23.367Z,40.50
2017-07-30T17:58:51.469Z,40.80
2017-07-30T18:01:19.556Z,41.00
2017-07-30T18:03:47.604Z,40.80
2017-07-30T18:06:15.683Z,41.00
2017-07-30T18:08:43.757Z,41.70
2017-07-30T18:11:11.830Z,42.10
2017-07-30T18:13:39.895Z,42.20
2017-07-30T18:16:07.980Z,42.60
2017-07-30T18:18:36.038Z,42.70
2017-07-30T18:21:04.335Z,43.00
2017-07-30T18:23:32.407Z,43.20
2017-07-30T18:26:00.479Z,43.60
2017-07-30T18:28:28.544Z,44.00
2017-07-30T18:30:56.623Z,44.30
2017-07-30T18:33:24.695Z,44.80
2017-07-30T18:35:52.773Z,44.80
2017-07-30T18:38:20.852Z,45.20
2017-07-30T18:40:48.938Z,45.40
2017-07-30T18:43:17.010Z,45.40
2017-07-30T18:45:45.083Z,45.60
2017-07-30T18:48:13.163Z,45.90
2017-07-30T18:50:41.241Z,46.10
2017-07-30T18:53:09.310Z,47.00
2017-07-30T18:55:37.379Z,46.30
2017-07-30T18:58:05.455Z,46.30
2017-07-30T19:00:33.522Z,46.20
2017-07-30T19:03:02.891Z,46.70
2017-07-30T19:05:30.972Z,46.70
2017-07-30T19:07:59.048Z,46.60
2017-07-30T19:10:27.111Z,46.40
2017-07-30T19:12:55.198Z,46.30
2017-07-30T19:15:24.032Z,40.90
2017-07-30T19:17:52.107Z,40.80
2017-07-30T19:20:20.183Z,36.40
2017-07-30T19:22:48.251Z,35.50
2017-07-30T19:25:16.327Z,35.10
2017-07-30T19:27:44.396Z,34.90
2017-07-30T19:30:12.477Z,35.90
2017-07-30T19:32:40.545Z,37.10
2017-07-30T19:35:08.612Z,40.50
2017-07-30T19:37:36.693Z,43.40
2017-07-30T19:40:04.768Z,45.80
2017-07-30T19:42:32.838Z,45.80
2017-07-30T19:45:00.923Z,46.50
2017-07-30T19:47:28.998Z,45.60
2017-07-30T19:49:57.095Z,43.70
2017-07-30T19:52:25.179Z,43.00
2017-07-30T19:54:53.254Z,42.50
2017-07-30T19:57:22.087Z,41.40
2017-07-30T19:59:50.160Z,41.40
2017-07-30T20:02:18.231Z,41.10
2017-07-30T20:04:46.299Z,40.10
2017-07-30T20:07:14.394Z,40.10
2017-07-30T20:09:42.443Z,40.00
2017-07-30T20:12:10.515Z,39.90
2017-07-30T20:14:38.588Z,39.70
2017-07-30T20:17:06.663Z,39.50
2017-07-30T20:19:34.732Z,39.70
2017-07-30T20:22:02.808Z,40.40
2017-07-30T20:24:30.875Z,41.40
2017-07-30T20:26:58.958Z,42.10
2017-07-30T20:29:27.026Z,43.90
2017-07-30T20:31:55.105Z,45.20
2017-07-30T20:34:23.172Z,45.00
2017-07-30T20:36:51.249Z,45.00
2017-07-30T20:39:19.312Z,45.90
2017-07-30T20:41:47.383Z,47.10
2017-07-30T20:44:15.460Z,47.50
2017-07-30T20:46:43.567Z,48.40
2017-07-30T20:49:11.649Z,48.40
2017-07-30T20:54:33.572Z,49.30
2017-07-30T20:57:01.683Z,49.60
2017-07-30T20:59:30.534Z,50.20
2017-07-30T21:01:58.743Z,50.10
2017-07-30T21:04:27.578Z,50.90
2017-07-30T21:06:55.652Z,50.90
2017-07-30T21:09:23.825Z,51.20
2017-07-30T21:11:51.881Z,51.70
2017-07-30T21:14:20.008Z,52.20
2017-07-30T21:16:48.071Z,52.40
2017-07-30T21:19:16.158Z,52.40
2017-07-30T21:21:44.227Z,52.40
2017-07-30T21:24:12.290Z,53.10
2017-07-30T21:26:40.477Z,52.90
2017-07-30T21:29:08.542Z,53.30
2017-07-30T21:31:36.610Z,53.30
2017-07-30T21:34:04.690Z,53.30
2017-07-30T21:36:32.763Z,53.30
2017-07-30T21:39:00.841Z,53.70
2017-07-30T21:41:28.968Z,53.70
2017-07-30T21:43:57.039Z,54.00
2017-07-30T21:46:25.117Z,54.50
2017-07-30T21:48:53.187Z,54.80
2017-07-30T21:51:21.259Z,54.50
2017-07-30T21:53:49.331Z,54.70
2017-07-30T21:56:17.431Z,55.30
2017-07-30T21:58:45.495Z,55.30
2017-07-30T22:01:13.618Z,55.60
2017-07-30T22:03:41.682Z,55.90
2017-07-30T22:06:09.754Z,56.10
2017-07-30T22:08:38.599Z,56.30
2017-07-30T22:11:06.654Z,56.30
2017-07-30T22:13:34.886Z,56.60
2017-07-30T22:16:03.722Z,57.10
2017-07-30T22:18:32.502Z,57.00
2017-07-30T22:21:00.581Z,57.00
2017-07-30T22:23:28.654Z,57.00
2017-07-30T22:25:56.713Z,57.10
2017-07-30T22:28:24.778Z,57.10
2017-07-30T22:30:52.843Z,57.30
2017-07-30T22:33:20.929Z,57.30
2017-07-30T22:35:48.993Z,57.60
2017-07-30T22:38:17.834Z,59.30
2017-07-30T22:40:45.915Z,59.20
2017-07-30T22:43:13.987Z,60.00
2017-07-30T22:45:42.067Z,60.50
2017-07-30T22:48:10.129Z,60.10
2017-07-30T22:50:38.207Z,60.90
2017-07-30T22:53:06.280Z,61.10
2017-07-30T22:55:34.355Z,61.20
2017-07-30T22:58:02.420Z,61.00
2017-07-30T23:00:30.496Z,61.10
2017-07-30T23:02:58.652Z,61.50
2017-07-30T23:05:26.745Z,61.70
2017-07-30T23:07:54.810Z,61.80
2017-07-30T23:10:22.992Z,62.00
2017-07-30T23:12:51.058Z,62.10
2017-07-30T23:15:19.231Z,62.20
2017-07-30T23:17:47.310Z,62.90
2017-07-30T23:20:15.380Z,62.20
2017-07-30T23:22:43.450Z,62.10
2017-07-30T23:25:11.690Z,62.70
2017-07-30T23:27:39.780Z,62.70
2017-07-30T23:30:07.838Z,62.30
2017-07-30T23:32:35.927Z,62.50
2017-07-30T23:35:03.978Z,63.00
2017-07-30T23:37:32.052Z,62.70
2017-07-30T23:40:00.135Z,62.80
2017-07-30T23:42:28.198Z,62.60
2017-07-30T23:44:56.275Z,62.30
2017-07-30T23:47:24.341Z,62.20
2017-07-30T23:49:52.414Z,62.10
2017-07-30T23:52:20.484Z,62.50
2017-07-30T23:54:48.565Z,62.30
2017-07-30T23:57:16.635Z,63.00
2017-07-30T23:59:44.710Z,63.30
